sensor_id;sensor_type;location;lat;lon;timestamp;P1;durP1;ratioP1;P2;durP2;ratioP2
4268;SDS011;2148;48.554;7.834;2023-04-27T00:00:36;5.43;;;4.93;;
4268;SDS011;2148;48.554;7.834;2023-04-27T00:03:02;6.50;;;5.33;;
4268;SDS011;2148;48.554;7.834;2023-04-27T00:05:32;5.40;;;4.90;;
4268;SDS011;2148;48.554;7.834;2023-04-27T00:07:59;5.20;;;4.70;;
4268;SDS011;2148;48.554;7.834;2023-04-27T00:10:24;6.80;;;5.33;;
4268;SDS011;2148;48.554;7.834;2023-04-27T00:12:49;10.40;;;5.13;;
4268;SDS011;2148;48.554;7.834;2023-04-27T00:15:15;5.27;;;4.70;;
4268;SDS011;2148;48.554;7.834;2023-04-27T00:17:40;5.63;;;5.03;;
4268;SDS011;2148;48.554;7.834;2023-04-27T00:20:07;5.87;;;5.27;;
4268;SDS011;2148;48.554;7.834;2023-04-27T00:22:35;5.63;;;5.07;;
4268;SDS011;2148;48.554;7.834;2023-04-27T00:25:01;5.83;;;5.23;;
4268;SDS011;2148;48.554;7.834;2023-04-27T00:27:27;5.80;;;5.33;;
4268;SDS011;2148;48.554;7.834;2023-04-27T00:29:52;6.17;;;4.97;;
4268;SDS011;2148;48.554;7.834;2023-04-27T00:32:18;6.07;;;4.97;;
4268;SDS011;2148;48.554;7.834;2023-04-27T00:34:43;6.10;;;5.23;;
4268;SDS011;2148;48.554;7.834;2023-04-27T00:37:09;5.13;;;4.57;;
4268;SDS011;2148;48.554;7.834;2023-04-27T00:39:34;5.37;;;4.53;;
4268;SDS011;2148;48.554;7.834;2023-04-27T00:42:00;6.03;;;5.43;;
4268;SDS011;2148;48.554;7.834;2023-04-27T00:44:26;5.20;;;4.50;;
4268;SDS011;2148;48.554;7.834;2023-04-27T00:46:52;5.93;;;5.33;;
4268;SDS011;2148;48.554;7.834;2023-04-27T00:49:20;6.57;;;5.00;;
4268;SDS011;2148;48.554;7.834;2023-04-27T00:51:49;5.50;;;4.97;;
4268;SDS011;2148;48.554;7.834;2023-04-27T00:54:14;6.80;;;5.03;;
4268;SDS011;2148;48.554;7.834;2023-04-27T00:56:44;6.07;;;4.83;;
4268;SDS011;2148;48.554;7.834;2023-04-27T00:59:11;5.13;;;4.53;;
4268;SDS011;2148;48.554;7.834;2023-04-27T01:01:37;5.70;;;5.03;;
4268;SDS011;2148;48.554;7.834;2023-04-27T01:04:02;5.40;;;4.90;;
4268;SDS011;2148;48.554;7.834;2023-04-27T01:06:27;5.30;;;4.80;;
4268;SDS011;2148;48.554;7.834;2023-04-27T01:08:53;5.77;;;5.27;;
4268;SDS011;2148;48.554;7.834;2023-04-27T01:11:19;5.83;;;5.23;;
4268;SDS011;2148;48.554;7.834;2023-04-27T01:13:45;6.03;;;5.37;;
4268;SDS011;2148;48.554;7.834;2023-04-27T01:16:10;5.27;;;4.77;;
4268;SDS011;2148;48.554;7.834;2023-04-27T01:18:36;6.30;;;5.70;;
4268;SDS011;2148;48.554;7.834;2023-04-27T01:21:01;5.47;;;4.93;;
4268;SDS011;2148;48.554;7.834;2023-04-27T01:23:27;5.70;;;5.20;;
4268;SDS011;2148;48.554;7.834;2023-04-27T01:25:52;5.87;;;5.37;;
4268;SDS011;2148;48.554;7.834;2023-04-27T01:28:18;5.40;;;4.90;;
4268;SDS011;2148;48.554;7.834;2023-04-27T01:30:43;5.67;;;5.17;;
4268;SDS011;2148;48.554;7.834;2023-04-27T01:33:08;6.10;;;5.50;;
4268;SDS011;2148;48.554;7.834;2023-04-27T01:35:34;5.63;;;5.10;;
4268;SDS011;2148;48.554;7.834;2023-04-27T01:38:00;5.77;;;5.27;;
4268;SDS011;2148;48.554;7.834;2023-04-27T01:40:25;5.57;;;5.07;;
4268;SDS011;2148;48.554;7.834;2023-04-27T01:42:50;5.97;;;5.20;;
4268;SDS011;2148;48.554;7.834;2023-04-27T01:45:16;6.17;;;5.23;;
4268;SDS011;2148;48.554;7.834;2023-04-27T01:47:41;6.77;;;5.10;;
4268;SDS011;2148;48.554;7.834;2023-04-27T01:50:06;5.93;;;4.83;;
4268;SDS011;2148;48.554;7.834;2023-04-27T01:52:32;5.70;;;5.03;;
4268;SDS011;2148;48.554;7.834;2023-04-27T01:54:57;6.33;;;4.97;;
4268;SDS011;2148;48.554;7.834;2023-04-27T01:57:23;5.50;;;5.00;;
4268;SDS011;2148;48.554;7.834;2023-04-27T01:59:49;5.97;;;5.10;;
4268;SDS011;2148;48.554;7.834;2023-04-27T02:02:14;5.67;;;5.17;;
4268;SDS011;2148;48.554;7.834;2023-04-27T02:04:40;6.97;;;5.40;;
4268;SDS011;2148;48.554;7.834;2023-04-27T02:07:07;6.30;;;5.23;;
4268;SDS011;2148;48.554;7.834;2023-04-27T02:09:32;7.03;;;6.20;;
4268;SDS011;2148;48.554;7.834;2023-04-27T02:11:57;8.33;;;7.53;;
4268;SDS011;2148;48.554;7.834;2023-04-27T02:14:23;8.77;;;7.87;;
4268;SDS011;2148;48.554;7.834;2023-04-27T02:16:48;10.07;;;9.10;;
4268;SDS011;2148;48.554;7.834;2023-04-27T02:19:13;9.70;;;8.40;;
4268;SDS011;2148;48.554;7.834;2023-04-27T02:21:39;9.40;;;8.40;;
4268;SDS011;2148;48.554;7.834;2023-04-27T02:24:05;10.33;;;8.63;;
4268;SDS011;2148;48.554;7.834;2023-04-27T02:26:30;10.03;;;8.90;;
4268;SDS011;2148;48.554;7.834;2023-04-27T02:28:56;12.67;;;8.47;;
4268;SDS011;2148;48.554;7.834;2023-04-27T02:31:21;9.90;;;9.00;;
4268;SDS011;2148;48.554;7.834;2023-04-27T02:33:47;9.83;;;7.97;;
4268;SDS011;2148;48.554;7.834;2023-04-27T02:36:12;9.63;;;8.73;;
4268;SDS011;2148;48.554;7.834;2023-04-27T02:38:37;9.73;;;8.50;;
4268;SDS011;2148;48.554;7.834;2023-04-27T02:41:03;9.07;;;8.17;;
4268;SDS011;2148;48.554;7.834;2023-04-27T02:43:28;9.40;;;8.10;;
4268;SDS011;2148;48.554;7.834;2023-04-27T02:45:54;10.70;;;8.63;;
4268;SDS011;2148;48.554;7.834;2023-04-27T02:48:19;10.17;;;8.70;;
4268;SDS011;2148;48.554;7.834;2023-04-27T02:50:44;10.83;;;7.70;;
4268;SDS011;2148;48.554;7.834;2023-04-27T02:53:10;9.00;;;8.00;;
4268;SDS011;2148;48.554;7.834;2023-04-27T02:55:36;9.20;;;8.30;;
4268;SDS011;2148;48.554;7.834;2023-04-27T02:58:03;9.87;;;8.30;;
4268;SDS011;2148;48.554;7.834;2023-04-27T03:00:28;9.30;;;7.83;;
4268;SDS011;2148;48.554;7.834;2023-04-27T03:02:54;9.47;;;8.50;;
4268;SDS011;2148;48.554;7.834;2023-04-27T03:05:20;8.73;;;7.90;;
4268;SDS011;2148;48.554;7.834;2023-04-27T03:07:45;11.00;;;8.87;;
4268;SDS011;2148;48.554;7.834;2023-04-27T03:10:10;9.13;;;8.23;;
4268;SDS011;2148;48.554;7.834;2023-04-27T03:12:36;9.90;;;8.90;;
4268;SDS011;2148;48.554;7.834;2023-04-27T03:15:01;9.70;;;8.07;;
4268;SDS011;2148;48.554;7.834;2023-04-27T03:17:27;9.57;;;8.00;;
4268;SDS011;2148;48.554;7.834;2023-04-27T03:19:52;8.33;;;7.53;;
4268;SDS011;2148;48.554;7.834;2023-04-27T03:22:17;8.53;;;7.77;;
4268;SDS011;2148;48.554;7.834;2023-04-27T03:24:43;8.90;;;8.00;;
4268;SDS011;2148;48.554;7.834;2023-04-27T03:27:09;9.17;;;8.13;;
4268;SDS011;2148;48.554;7.834;2023-04-27T03:29:34;9.37;;;8.10;;
4268;SDS011;2148;48.554;7.834;2023-04-27T03:31:59;9.63;;;8.20;;
4268;SDS011;2148;48.554;7.834;2023-04-27T03:34:25;9.07;;;8.10;;
4268;SDS011;2148;48.554;7.834;2023-04-27T03:36:50;8.97;;;8.07;;
4268;SDS011;2148;48.554;7.834;2023-04-27T03:39:15;9.83;;;8.67;;
4268;SDS011;2148;48.554;7.834;2023-04-27T03:41:41;8.47;;;7.57;;
4268;SDS011;2148;48.554;7.834;2023-04-27T03:44:07;9.03;;;8.13;;
4268;SDS011;2148;48.554;7.834;2023-04-27T03:46:32;8.70;;;7.70;;
4268;SDS011;2148;48.554;7.834;2023-04-27T03:48:58;8.70;;;7.80;;
4268;SDS011;2148;48.554;7.834;2023-04-27T03:51:23;9.30;;;8.20;;
4268;SDS011;2148;48.554;7.834;2023-04-27T03:53:49;10.00;;;9.00;;
4268;SDS011;2148;48.554;7.834;2023-04-27T03:56:14;8.63;;;7.83;;
4268;SDS011;2148;48.554;7.834;2023-04-27T03:58:39;8.20;;;7.40;;
4268;SDS011;2148;48.554;7.834;2023-04-27T04:01:05;9.50;;;8.53;;
4268;SDS011;2148;48.554;7.834;2023-04-27T04:03:30;9.17;;;8.03;;
4268;SDS011;2148;48.554;7.834;2023-04-27T04:05:55;8.60;;;7.80;;
4268;SDS011;2148;48.554;7.834;2023-04-27T04:08:21;8.57;;;7.77;;
4268;SDS011;2148;48.554;7.834;2023-04-27T04:10:46;9.73;;;8.20;;
4268;SDS011;2148;48.554;7.834;2023-04-27T04:13:12;8.80;;;7.47;;
4268;SDS011;2148;48.554;7.834;2023-04-27T04:15:37;8.90;;;8.00;;
4268;SDS011;2148;48.554;7.834;2023-04-27T04:18:02;8.80;;;7.90;;
4268;SDS011;2148;48.554;7.834;2023-04-27T04:20:28;9.63;;;7.63;;
4268;SDS011;2148;48.554;7.834;2023-04-27T04:22:53;8.33;;;7.00;;
4268;SDS011;2148;48.554;7.834;2023-04-27T04:25:19;9.63;;;8.63;;
4268;SDS011;2148;48.554;7.834;2023-04-27T04:27:44;8.37;;;7.57;;
4268;SDS011;2148;48.554;7.834;2023-04-27T04:30:12;7.93;;;7.23;;
4268;SDS011;2148;48.554;7.834;2023-04-27T04:32:37;8.53;;;7.43;;
4268;SDS011;2148;48.554;7.834;2023-04-27T04:35:03;9.90;;;8.10;;
4268;SDS011;2148;48.554;7.834;2023-04-27T04:37:31;8.70;;;7.70;;
4268;SDS011;2148;48.554;7.834;2023-04-27T04:39:58;8.50;;;7.33;;
4268;SDS011;2148;48.554;7.834;2023-04-27T04:42:23;8.73;;;7.83;;
4268;SDS011;2148;48.554;7.834;2023-04-27T04:44:48;9.43;;;7.57;;
4268;SDS011;2148;48.554;7.834;2023-04-27T04:47:14;8.47;;;7.53;;
4268;SDS011;2148;48.554;7.834;2023-04-27T04:49:39;8.33;;;7.57;;
4268;SDS011;2148;48.554;7.834;2023-04-27T04:52:05;8.40;;;7.60;;
4268;SDS011;2148;48.554;7.834;2023-04-27T04:54:30;7.47;;;6.77;;
4268;SDS011;2148;48.554;7.834;2023-04-27T04:56:55;8.17;;;7.33;;
4268;SDS011;2148;48.554;7.834;2023-04-27T04:59:22;9.17;;;7.73;;
4268;SDS011;2148;48.554;7.834;2023-04-27T05:01:48;8.40;;;7.37;;
4268;SDS011;2148;48.554;7.834;2023-04-27T05:04:13;8.97;;;7.73;;
4268;SDS011;2148;48.554;7.834;2023-04-27T05:06:38;8.17;;;7.43;;
4268;SDS011;2148;48.554;7.834;2023-04-27T05:09:04;8.60;;;7.73;;
4268;SDS011;2148;48.554;7.834;2023-04-27T05:11:30;7.87;;;7.07;;
4268;SDS011;2148;48.554;7.834;2023-04-27T05:13:55;8.30;;;7.50;;
4268;SDS011;2148;48.554;7.834;2023-04-27T05:16:21;9.37;;;7.33;;
4268;SDS011;2148;48.554;7.834;2023-04-27T05:18:46;8.50;;;7.70;;
4268;SDS011;2148;48.554;7.834;2023-04-27T05:21:15;8.30;;;7.43;;
4268;SDS011;2148;48.554;7.834;2023-04-27T05:23:41;9.13;;;8.00;;
4268;SDS011;2148;48.554;7.834;2023-04-27T05:26:11;7.60;;;7.00;;
4268;SDS011;2148;48.554;7.834;2023-04-27T05:28:39;9.03;;;8.13;;
4268;SDS011;2148;48.554;7.834;2023-04-27T05:31:05;8.27;;;7.47;;
4268;SDS011;2148;48.554;7.834;2023-04-27T05:33:30;8.67;;;7.53;;
4268;SDS011;2148;48.554;7.834;2023-04-27T05:35:56;8.43;;;7.53;;
4268;SDS011;2148;48.554;7.834;2023-04-27T05:38:21;9.50;;;7.90;;
4268;SDS011;2148;48.554;7.834;2023-04-27T05:40:46;9.67;;;7.77;;
4268;SDS011;2148;48.554;7.834;2023-04-27T05:43:18;8.07;;;7.30;;
4268;SDS011;2148;48.554;7.834;2023-04-27T05:45:43;8.10;;;7.30;;
4268;SDS011;2148;48.554;7.834;2023-04-27T05:48:08;8.17;;;7.37;;
4268;SDS011;2148;48.554;7.834;2023-04-27T05:50:34;8.17;;;7.37;;
4268;SDS011;2148;48.554;7.834;2023-04-27T05:52:59;11.30;;;7.70;;
4268;SDS011;2148;48.554;7.834;2023-04-27T05:55:25;9.50;;;7.50;;
4268;SDS011;2148;48.554;7.834;2023-04-27T05:57:50;7.87;;;7.17;;
4268;SDS011;2148;48.554;7.834;2023-04-27T06:00:15;8.87;;;7.63;;
4268;SDS011;2148;48.554;7.834;2023-04-27T06:02:41;9.37;;;8.30;;
4268;SDS011;2148;48.554;7.834;2023-04-27T06:05:06;8.47;;;7.67;;
4268;SDS011;2148;48.554;7.834;2023-04-27T06:07:32;8.60;;;7.80;;
4268;SDS011;2148;48.554;7.834;2023-04-27T06:09:57;8.20;;;7.37;;
4268;SDS011;2148;48.554;7.834;2023-04-27T06:12:23;8.40;;;7.37;;
4268;SDS011;2148;48.554;7.834;2023-04-27T06:14:48;8.17;;;7.30;;
4268;SDS011;2148;48.554;7.834;2023-04-27T06:17:13;8.30;;;7.50;;
4268;SDS011;2148;48.554;7.834;2023-04-27T06:19:39;8.47;;;7.67;;
4268;SDS011;2148;48.554;7.834;2023-04-27T06:22:04;7.90;;;6.93;;
4268;SDS011;2148;48.554;7.834;2023-04-27T06:24:30;8.67;;;7.57;;
4268;SDS011;2148;48.554;7.834;2023-04-27T06:26:55;8.23;;;7.43;;
4268;SDS011;2148;48.554;7.834;2023-04-27T06:29:21;8.53;;;7.63;;
4268;SDS011;2148;48.554;7.834;2023-04-27T06:31:46;8.93;;;8.00;;
4268;SDS011;2148;48.554;7.834;2023-04-27T06:34:11;8.13;;;7.33;;
4268;SDS011;2148;48.554;7.834;2023-04-27T06:36:37;8.57;;;7.30;;
4268;SDS011;2148;48.554;7.834;2023-04-27T06:39:02;9.73;;;7.40;;
4268;SDS011;2148;48.554;7.834;2023-04-27T06:41:27;8.77;;;7.67;;
4268;SDS011;2148;48.554;7.834;2023-04-27T06:43:53;10.63;;;8.23;;
4268;SDS011;2148;48.554;7.834;2023-04-27T06:46:18;8.60;;;7.77;;
4268;SDS011;2148;48.554;7.834;2023-04-27T06:48:44;9.20;;;7.77;;
4268;SDS011;2148;48.554;7.834;2023-04-27T06:51:10;9.10;;;8.20;;
4268;SDS011;2148;48.554;7.834;2023-04-27T06:53:36;7.70;;;6.90;;
4268;SDS011;2148;48.554;7.834;2023-04-27T06:56:02;8.67;;;7.87;;
4268;SDS011;2148;48.554;7.834;2023-04-27T06:58:27;9.00;;;8.10;;
4268;SDS011;2148;48.554;7.834;2023-04-27T07:00:53;9.23;;;8.30;;
4268;SDS011;2148;48.554;7.834;2023-04-27T07:03:19;7.93;;;7.23;;
4268;SDS011;2148;48.554;7.834;2023-04-27T07:05:44;9.10;;;8.30;;
4268;SDS011;2148;48.554;7.834;2023-04-27T07:08:11;8.90;;;8.00;;
4268;SDS011;2148;48.554;7.834;2023-04-27T07:10:36;8.60;;;7.73;;
4268;SDS011;2148;48.554;7.834;2023-04-27T07:13:02;8.63;;;7.70;;
4268;SDS011;2148;48.554;7.834;2023-04-27T07:15:27;8.73;;;7.87;;
4268;SDS011;2148;48.554;7.834;2023-04-27T07:17:54;8.30;;;7.50;;
4268;SDS011;2148;48.554;7.834;2023-04-27T07:20:20;9.67;;;7.33;;
4268;SDS011;2148;48.554;7.834;2023-04-27T07:22:45;8.90;;;8.00;;
4268;SDS011;2148;48.554;7.834;2023-04-27T07:25:11;8.47;;;7.60;;
4268;SDS011;2148;48.554;7.834;2023-04-27T07:27:36;8.63;;;7.73;;
4268;SDS011;2148;48.554;7.834;2023-04-27T07:30:02;9.50;;;8.60;;
4268;SDS011;2148;48.554;7.834;2023-04-27T07:32:28;9.00;;;8.10;;
4268;SDS011;2148;48.554;7.834;2023-04-27T07:34:54;8.83;;;7.93;;
4268;SDS011;2148;48.554;7.834;2023-04-27T07:37:20;8.63;;;7.37;;
4268;SDS011;2148;48.554;7.834;2023-04-27T07:39:47;10.30;;;8.33;;
4268;SDS011;2148;48.554;7.834;2023-04-27T07:42:14;8.93;;;8.07;;
4268;SDS011;2148;48.554;7.834;2023-04-27T07:44:39;9.80;;;8.17;;
4268;SDS011;2148;48.554;7.834;2023-04-27T07:47:06;8.40;;;7.40;;
4268;SDS011;2148;48.554;7.834;2023-04-27T07:49:32;8.30;;;7.50;;
4268;SDS011;2148;48.554;7.834;2023-04-27T07:51:58;9.57;;;7.30;;
4268;SDS011;2148;48.554;7.834;2023-04-27T07:54:23;9.63;;;7.40;;
4268;SDS011;2148;48.554;7.834;2023-04-27T07:56:48;9.63;;;8.57;;
4268;SDS011;2148;48.554;7.834;2023-04-27T07:59:14;13.07;;;8.30;;
4268;SDS011;2148;48.554;7.834;2023-04-27T08:01:39;11.30;;;7.27;;
4268;SDS011;2148;48.554;7.834;2023-04-27T08:04:05;8.77;;;7.87;;
4268;SDS011;2148;48.554;7.834;2023-04-27T08:06:30;9.73;;;8.67;;
4268;SDS011;2148;48.554;7.834;2023-04-27T08:08:55;9.60;;;8.70;;
4268;SDS011;2148;48.554;7.834;2023-04-27T08:11:24;9.10;;;7.90;;
4268;SDS011;2148;48.554;7.834;2023-04-27T08:13:50;12.33;;;8.53;;
4268;SDS011;2148;48.554;7.834;2023-04-27T08:16:15;7.90;;;7.20;;
4268;SDS011;2148;48.554;7.834;2023-04-27T08:18:42;10.53;;;7.50;;
4268;SDS011;2148;48.554;7.834;2023-04-27T08:21:08;9.20;;;7.50;;
4268;SDS011;2148;48.554;7.834;2023-04-27T08:23:34;7.13;;;6.53;;
4268;SDS011;2148;48.554;7.834;2023-04-27T08:26:02;8.37;;;6.70;;
4268;SDS011;2148;48.554;7.834;2023-04-27T08:28:27;8.10;;;6.97;;
4268;SDS011;2148;48.554;7.834;2023-04-27T08:30:52;7.07;;;6.30;;
4268;SDS011;2148;48.554;7.834;2023-04-27T08:33:18;9.33;;;6.97;;
4268;SDS011;2148;48.554;7.834;2023-04-27T08:35:43;8.83;;;6.50;;
4268;SDS011;2148;48.554;7.834;2023-04-27T08:38:08;7.40;;;6.57;;
4268;SDS011;2148;48.554;7.834;2023-04-27T08:40:33;7.67;;;5.70;;
4268;SDS011;2148;48.554;7.834;2023-04-27T08:42:59;7.93;;;5.57;;
4268;SDS011;2148;48.554;7.834;2023-04-27T08:45:25;6.50;;;5.63;;
4268;SDS011;2148;48.554;7.834;2023-04-27T08:47:51;5.70;;;5.20;;
4268;SDS011;2148;48.554;7.834;2023-04-27T08:50:17;6.03;;;5.53;;
4268;SDS011;2148;48.554;7.834;2023-04-27T08:52:43;6.10;;;5.50;;
4268;SDS011;2148;48.554;7.834;2023-04-27T08:55:12;6.53;;;5.93;;
4268;SDS011;2148;48.554;7.834;2023-04-27T08:57:37;7.90;;;5.77;;
4268;SDS011;2148;48.554;7.834;2023-04-27T09:00:03;8.87;;;5.50;;
4268;SDS011;2148;48.554;7.834;2023-04-27T09:02:36;6.57;;;5.03;;
4268;SDS011;2148;48.554;7.834;2023-04-27T09:05:13;6.87;;;5.50;;
4268;SDS011;2148;48.554;7.834;2023-04-27T09:07:43;5.20;;;4.70;;
4268;SDS011;2148;48.554;7.834;2023-04-27T09:10:48;5.93;;;5.27;;
4268;SDS011;2148;48.554;7.834;2023-04-27T09:13:15;5.67;;;5.13;;
4268;SDS011;2148;48.554;7.834;2023-04-27T09:15:50;5.30;;;4.90;;
4268;SDS011;2148;48.554;7.834;2023-04-27T09:18:16;6.27;;;5.43;;
4268;SDS011;2148;48.554;7.834;2023-04-27T09:20:48;5.53;;;4.90;;
4268;SDS011;2148;48.554;7.834;2023-04-27T09:23:27;5.60;;;4.87;;
4268;SDS011;2148;48.554;7.834;2023-04-27T09:25:54;5.13;;;4.63;;
4268;SDS011;2148;48.554;7.834;2023-04-27T09:28:26;5.70;;;4.20;;
4268;SDS011;2148;48.554;7.834;2023-04-27T09:30:53;5.60;;;4.90;;
4268;SDS011;2148;48.554;7.834;2023-04-27T09:35:48;4.43;;;4.03;;
4268;SDS011;2148;48.554;7.834;2023-04-27T09:38:14;5.00;;;3.90;;
4268;SDS011;2148;48.554;7.834;2023-04-27T09:40:39;4.63;;;4.20;;
4268;SDS011;2148;48.554;7.834;2023-04-27T09:43:05;5.87;;;4.90;;
4268;SDS011;2148;48.554;7.834;2023-04-27T09:45:32;6.40;;;4.37;;
4268;SDS011;2148;48.554;7.834;2023-04-27T09:47:57;3.87;;;3.47;;
4268;SDS011;2148;48.554;7.834;2023-04-27T09:50:24;5.77;;;4.73;;
4268;SDS011;2148;48.554;7.834;2023-04-27T09:52:50;4.63;;;4.23;;
4268;SDS011;2148;48.554;7.834;2023-04-27T09:55:16;6.00;;;4.40;;
4268;SDS011;2148;48.554;7.834;2023-04-27T10:03:14;5.20;;;4.67;;
4268;SDS011;2148;48.554;7.834;2023-04-27T10:06:37;6.93;;;4.63;;
4268;SDS011;2148;48.554;7.834;2023-04-27T10:08:37;7.47;;;5.03;;
4268;SDS011;2148;48.554;7.834;2023-04-27T10:11:12;4.77;;;4.27;;
4268;SDS011;2148;48.554;7.834;2023-04-27T10:13:49;6.47;;;4.53;;
4268;SDS011;2148;48.554;7.834;2023-04-27T10:16:18;5.27;;;4.07;;
4268;SDS011;2148;48.554;7.834;2023-04-27T10:18:49;6.20;;;5.60;;
4268;SDS011;2148;48.554;7.834;2023-04-27T10:21:18;5.50;;;4.73;;
4268;SDS011;2148;48.554;7.834;2023-04-27T10:23:48;6.27;;;4.73;;
4268;SDS011;2148;48.554;7.834;2023-04-27T10:26:20;7.00;;;4.80;;
4268;SDS011;2148;48.554;7.834;2023-04-27T10:29:05;4.97;;;4.13;;
4268;SDS011;2148;48.554;7.834;2023-04-27T10:31:32;4.97;;;3.97;;
4268;SDS011;2148;48.554;7.834;2023-04-27T10:34:07;6.37;;;4.87;;
4268;SDS011;2148;48.554;7.834;2023-04-27T10:36:37;5.80;;;5.13;;
4268;SDS011;2148;48.554;7.834;2023-04-27T10:39:12;4.80;;;4.20;;
4268;SDS011;2148;48.554;7.834;2023-04-27T10:41:49;5.47;;;4.73;;
4268;SDS011;2148;48.554;7.834;2023-04-27T10:44:24;5.70;;;4.20;;
4268;SDS011;2148;48.554;7.834;2023-04-27T10:46:52;6.60;;;5.70;;
4268;SDS011;2148;48.554;7.834;2023-04-27T10:49:18;7.00;;;4.90;;
4268;SDS011;2148;48.554;7.834;2023-04-27T10:51:44;5.53;;;4.03;;
4268;SDS011;2148;48.554;7.834;2023-04-27T10:54:10;3.93;;;3.63;;
4268;SDS011;2148;48.554;7.834;2023-04-27T10:56:36;5.33;;;4.20;;
4268;SDS011;2148;48.554;7.834;2023-04-27T10:59:02;5.07;;;4.00;;
4268;SDS011;2148;48.554;7.834;2023-04-27T11:01:28;4.63;;;3.20;;
4268;SDS011;2148;48.554;7.834;2023-04-27T11:03:57;6.47;;;3.67;;
4268;SDS011;2148;48.554;7.834;2023-04-27T11:06:23;3.60;;;3.20;;
4268;SDS011;2148;48.554;7.834;2023-04-27T11:08:49;7.43;;;3.87;;
4268;SDS011;2148;48.554;7.834;2023-04-27T11:11:14;3.93;;;3.47;;
4268;SDS011;2148;48.554;7.834;2023-04-27T11:13:41;7.03;;;4.60;;
4268;SDS011;2148;48.554;7.834;2023-04-27T11:16:07;5.23;;;4.40;;
4268;SDS011;2148;48.554;7.834;2023-04-27T11:18:35;4.70;;;4.30;;
4268;SDS011;2148;48.554;7.834;2023-04-27T11:21:05;4.80;;;4.00;;
4268;SDS011;2148;48.554;7.834;2023-04-27T11:23:31;9.03;;;3.87;;
4268;SDS011;2148;48.554;7.834;2023-04-27T11:26:14;6.00;;;4.00;;
4268;SDS011;2148;48.554;7.834;2023-04-27T11:28:56;3.90;;;3.20;;
4268;SDS011;2148;48.554;7.834;2023-04-27T11:31:23;4.37;;;3.70;;
4268;SDS011;2148;48.554;7.834;2023-04-27T11:33:49;5.07;;;3.23;;
4268;SDS011;2148;48.554;7.834;2023-04-27T11:36:15;3.50;;;3.20;;
4268;SDS011;2148;48.554;7.834;2023-04-27T11:38:44;3.07;;;2.87;;
4268;SDS011;2148;48.554;7.834;2023-04-27T11:41:09;4.93;;;3.07;;
4268;SDS011;2148;48.554;7.834;2023-04-27T11:43:36;3.23;;;2.60;;
4268;SDS011;2148;48.554;7.834;2023-04-27T11:46:05;3.33;;;2.80;;
4268;SDS011;2148;48.554;7.834;2023-04-27T11:48:34;3.60;;;3.07;;
4268;SDS011;2148;48.554;7.834;2023-04-27T11:51:01;5.57;;;2.80;;
4268;SDS011;2148;48.554;7.834;2023-04-27T11:53:28;4.47;;;3.30;;
4268;SDS011;2148;48.554;7.834;2023-04-27T11:56:00;2.87;;;2.67;;
4268;SDS011;2148;48.554;7.834;2023-04-27T11:58:29;3.77;;;2.90;;
4268;SDS011;2148;48.554;7.834;2023-04-27T12:00:55;3.33;;;2.90;;
4268;SDS011;2148;48.554;7.834;2023-04-27T12:03:21;4.43;;;3.27;;
4268;SDS011;2148;48.554;7.834;2023-04-27T12:05:47;3.37;;;3.03;;
4268;SDS011;2148;48.554;7.834;2023-04-27T12:08:14;5.27;;;2.97;;
4268;SDS011;2148;48.554;7.834;2023-04-27T12:10:40;3.67;;;2.90;;
4268;SDS011;2148;48.554;7.834;2023-04-27T12:13:06;3.73;;;2.40;;
4268;SDS011;2148;48.554;7.834;2023-04-27T12:15:31;4.03;;;2.97;;
4268;SDS011;2148;48.554;7.834;2023-04-27T12:17:57;4.67;;;3.07;;
4268;SDS011;2148;48.554;7.834;2023-04-27T12:20:22;3.53;;;3.20;;
4268;SDS011;2148;48.554;7.834;2023-04-27T12:22:47;5.07;;;3.07;;
4268;SDS011;2148;48.554;7.834;2023-04-27T12:25:13;3.10;;;2.73;;
4268;SDS011;2148;48.554;7.834;2023-04-27T12:27:39;2.83;;;2.60;;
4268;SDS011;2148;48.554;7.834;2023-04-27T12:30:05;3.07;;;2.77;;
4268;SDS011;2148;48.554;7.834;2023-04-27T12:32:30;4.03;;;3.13;;
4268;SDS011;2148;48.554;7.834;2023-04-27T12:34:56;3.53;;;2.50;;
4268;SDS011;2148;48.554;7.834;2023-04-27T12:37:21;3.00;;;2.70;;
4268;SDS011;2148;48.554;7.834;2023-04-27T12:39:46;3.40;;;3.00;;
4268;SDS011;2148;48.554;7.834;2023-04-27T12:42:12;2.83;;;2.50;;
4268;SDS011;2148;48.554;7.834;2023-04-27T12:44:37;3.50;;;2.90;;
4268;SDS011;2148;48.554;7.834;2023-04-27T12:47:02;5.40;;;3.10;;
4268;SDS011;2148;48.554;7.834;2023-04-27T12:49:29;3.27;;;2.90;;
4268;SDS011;2148;48.554;7.834;2023-04-27T12:51:55;3.77;;;3.13;;
4268;SDS011;2148;48.554;7.834;2023-04-27T12:54:21;3.73;;;2.60;;
4268;SDS011;2148;48.554;7.834;2023-04-27T12:56:47;2.83;;;2.63;;
4268;SDS011;2148;48.554;7.834;2023-04-27T12:59:12;5.00;;;3.03;;
4268;SDS011;2148;48.554;7.834;2023-04-27T13:01:38;2.73;;;2.50;;
4268;SDS011;2148;48.554;7.834;2023-04-27T13:04:03;3.43;;;2.83;;
4268;SDS011;2148;48.554;7.834;2023-04-27T13:06:30;4.13;;;3.13;;
4268;SDS011;2148;48.554;7.834;2023-04-27T13:08:56;3.20;;;2.90;;
4268;SDS011;2148;48.554;7.834;2023-04-27T13:11:22;2.80;;;2.47;;
4268;SDS011;2148;48.554;7.834;2023-04-27T13:13:48;3.53;;;2.43;;
4268;SDS011;2148;48.554;7.834;2023-04-27T13:16:13;3.73;;;2.53;;
4268;SDS011;2148;48.554;7.834;2023-04-27T13:18:39;2.60;;;2.40;;
4268;SDS011;2148;48.554;7.834;2023-04-27T13:21:06;2.60;;;2.40;;
4268;SDS011;2148;48.554;7.834;2023-04-27T13:23:32;3.07;;;2.30;;
4268;SDS011;2148;48.554;7.834;2023-04-27T13:25:57;3.33;;;2.40;;
4268;SDS011;2148;48.554;7.834;2023-04-27T13:28:23;4.07;;;2.57;;
4268;SDS011;2148;48.554;7.834;2023-04-27T13:30:48;2.93;;;2.50;;
4268;SDS011;2148;48.554;7.834;2023-04-27T13:33:13;3.00;;;2.30;;
4268;SDS011;2148;48.554;7.834;2023-04-27T13:35:40;2.70;;;2.23;;
4268;SDS011;2148;48.554;7.834;2023-04-27T13:38:05;2.20;;;2.00;;
4268;SDS011;2148;48.554;7.834;2023-04-27T13:40:31;2.43;;;1.93;;
4268;SDS011;2148;48.554;7.834;2023-04-27T13:42:56;2.40;;;2.20;;
4268;SDS011;2148;48.554;7.834;2023-04-27T13:45:22;2.70;;;2.50;;
4268;SDS011;2148;48.554;7.834;2023-04-27T13:47:47;2.93;;;2.23;;
4268;SDS011;2148;48.554;7.834;2023-04-27T13:50:13;2.80;;;2.60;;
4268;SDS011;2148;48.554;7.834;2023-04-27T13:52:38;2.60;;;2.40;;
4268;SDS011;2148;48.554;7.834;2023-04-27T13:55:05;2.73;;;2.30;;
4268;SDS011;2148;48.554;7.834;2023-04-27T13:57:32;2.30;;;2.20;;
4268;SDS011;2148;48.554;7.834;2023-04-27T13:59:57;4.80;;;2.30;;
4268;SDS011;2148;48.554;7.834;2023-04-27T14:02:24;3.20;;;2.40;;
4268;SDS011;2148;48.554;7.834;2023-04-27T14:04:50;2.90;;;2.60;;
4268;SDS011;2148;48.554;7.834;2023-04-27T14:07:16;2.67;;;2.37;;
4268;SDS011;2148;48.554;7.834;2023-04-27T14:09:41;4.37;;;2.80;;
4268;SDS011;2148;48.554;7.834;2023-04-27T14:12:06;4.30;;;2.80;;
4268;SDS011;2148;48.554;7.834;2023-04-27T14:14:32;3.63;;;2.70;;
4268;SDS011;2148;48.554;7.834;2023-04-27T14:16:59;2.53;;;2.33;;
4268;SDS011;2148;48.554;7.834;2023-04-27T14:19:25;2.60;;;2.40;;
4268;SDS011;2148;48.554;7.834;2023-04-27T14:21:51;2.53;;;2.33;;
4268;SDS011;2148;48.554;7.834;2023-04-27T14:24:16;2.60;;;2.40;;
4268;SDS011;2148;48.554;7.834;2023-04-27T14:26:42;3.33;;;2.53;;
4268;SDS011;2148;48.554;7.834;2023-04-27T14:29:11;3.53;;;2.43;;
4268;SDS011;2148;48.554;7.834;2023-04-27T14:31:36;2.50;;;2.30;;
4268;SDS011;2148;48.554;7.834;2023-04-27T14:34:02;2.40;;;2.20;;
4268;SDS011;2148;48.554;7.834;2023-04-27T14:36:28;2.63;;;2.17;;
4268;SDS011;2148;48.554;7.834;2023-04-27T14:38:53;2.63;;;2.40;;
4268;SDS011;2148;48.554;7.834;2023-04-27T14:41:19;2.93;;;2.30;;
4268;SDS011;2148;48.554;7.834;2023-04-27T14:43:44;3.80;;;2.17;;
4268;SDS011;2148;48.554;7.834;2023-04-27T14:46:11;2.90;;;2.40;;
4268;SDS011;2148;48.554;7.834;2023-04-27T14:48:36;2.43;;;2.17;;
4268;SDS011;2148;48.554;7.834;2023-04-27T14:51:01;2.57;;;2.30;;
4268;SDS011;2148;48.554;7.834;2023-04-27T14:53:27;4.00;;;2.50;;
4268;SDS011;2148;48.554;7.834;2023-04-27T14:55:52;2.40;;;2.20;;
4268;SDS011;2148;48.554;7.834;2023-04-27T14:58:17;3.83;;;2.27;;
4268;SDS011;2148;48.554;7.834;2023-04-27T15:00:43;3.37;;;2.40;;
4268;SDS011;2148;48.554;7.834;2023-04-27T15:03:08;4.30;;;2.60;;
4268;SDS011;2148;48.554;7.834;2023-04-27T15:05:33;2.90;;;2.20;;
4268;SDS011;2148;48.554;7.834;2023-04-27T15:07:59;3.23;;;2.33;;
4268;SDS011;2148;48.554;7.834;2023-04-27T15:10:25;4.13;;;2.70;;
4268;SDS011;2148;48.554;7.834;2023-04-27T15:12:50;3.00;;;2.40;;
4268;SDS011;2148;48.554;7.834;2023-04-27T15:15:16;2.40;;;2.20;;
4268;SDS011;2148;48.554;7.834;2023-04-27T15:17:41;2.50;;;2.30;;